map of SHI home
SHI - Airport
Location
City:  Shimojishima, Shimoji Island, Okinawa, Japan
Near (Alt.):Shimojijima, Miyakojima
Name:Shimojishima Airport
ICAO:RORS
IATA:SHI

Details
Type:Airport (Aerodrome, Airfield)
Use:Public/Civil
Latitude:24°49'36"N (24.826667)
Longitude:125°08'41"E (125.144722)
Datum:WGS 1984
Elevation:54 ft (16 m)
Variation:4.84°W (WMM2015 magnetic declination)
-0.09° annual change
Runways:1
Longest:9842 × 200 ft (3000 × 61 m), paved

Time
Time Zone:UTC+9
Local Time:

Weather
METAR:RORS 160800Z 21006KT 180V250 9999 FEW030 BKN080 23/18 Q1017

Related Locations
Nearby:
Farthest:SSPF: 12400 mi / 19956 km
São José das Palmeiras [Fazenda São Rafael], PR, BR

Find:

   beyond  
but within

Other Information
Maps:
NOTAMs:
Links:
Sources:

  
  • flag of Japan
  • flag of Okinawa
  

Sectional Chart

Flight Planning
at skyvector.com

Satellite Image

Google Maps Satellite view

 

Copyright © 2004-2018 Karl L. Swartz. All rights reserved.
The Great Circle Mapper name and logo are trademarks of the Great Circle Mapper.
All other trademarks mentioned herein belong to their respective owners.
Please see credits for attibutions and further copyright information.

  Follow gcmap on Facebook Follow gcmap on Twitter Follow gcmap on Google+ GCmap on LinkedIn

hCard Microformat

Geo Microformat